Terminal Aerodrome Forecast
Issued by NWS Portland, OR

Home | Current Version | Previous Version | Text Only | Print | Product List | Glossary On
Versions: 1 2 3 4 5 6 7 8 9 10 11 12 13 14 15 16 17 18 19 20 21 22 23 24 25 26 27
000
FTUS46 KPQR 241912 AAA
TAFHIO
TAF AMD
KHIO 241912Z 2419/2518 17010KT P6SM -RA BKN008 OVC013
     FM242030 17011KT P6SM -SHRA BKN015 OVC025
     FM242200 28009KT P6SM -SHRA SCT035 BKN050
     FM250300 27007KT P6SM VCSH SCT015 OVC035
     FM250800 20006KT P6SM SCT015 OVC025=

USA.gov is the U.S. government's official web portal to all federal, state and local government web resources and services.